Página principal
METAR-TAF:

METAR-TAF

Aeroportos :

Logan-Cache Airport

Logan, Utah, Estados Unidos

latitude: 41-46-58N, longitude: 111-51-14W, altura: 1357 m

Observação actual do tempo

O boletim foi feito há 27 minutos, às 16:51 UTC
Vento 6 kt de nor-noroeste
Temperatura 6°C
Humidade 39%
Pressão 1024 hPa
Visibilidade: 16.1 km
Céu limpo

METAR: KLGU 201651Z AUTO 34006KT 10SM CLR 06/M07 A3024 RMK AO2 SLP242 T00561072

Hora: 11:18 (17:18 UTC)

Previsão

O boletim foi feito há 5 horas e 58 minutos, às 11:20 UTC
Previsão válida de 20 às 12 UTC a 21 às 12 UTC
Vento 5 kt com direcção variável
Visibilidade: 10 km
Céu limpo
A partir de 20 às 1700 UTC
Vento 10 kt de sudeste
Visibilidade: 10 km
Nuvens dispersasa uma altura de 20000 ft
A partir de 21 às 0500 UTC
Vento 6 kt de su-sudeste
Visibilidade: 10 km
Nuvens dispersasa uma altura de 10000 ft
Nuvens fragmentadasa uma altura de 15000 ft

TAF: KLGU 201120Z 2012/2112 VRB05KT P6SM SKC FM201700 13010KT P6SM SCT200 FM210500 15006KT P6SM SCT100 BKN150

Observações e previsões do tempo de mais de 4000 aeroportos (mensagens METAR e TAF).

As estações disponíveis são os pontos amarelos e vermelhos sobre o mapa.

Mova o rato sobre o mapa para ver o nome da estação.

Depois clique no ponto para visualizar as observações e previsões meteorológicas.

Para alterar o mapa : clique nos botões verdes com uma cruz preta para aumentar o zoom; no botão verde com uma pitada de zoom; ou nas setas verdes para mapas adjacentes.


METAR-TAF: